createdAt,value
2023-04-26T00:00:03.842Z,1015.84
2023-04-26T00:05:04.356Z,1015.88
2023-04-26T00:10:03.696Z,1015.78
2023-04-26T00:15:03.668Z,1015.91
2023-04-26T00:20:03.396Z,1015.87
2023-04-26T00:25:03.193Z,1015.82
2023-04-26T00:30:03.174Z,1015.93
2023-04-26T00:35:03.743Z,1015.93
2023-04-26T00:40:03.512Z,1015.92
2023-04-26T00:45:03.311Z,1015.96
2023-04-26T00:50:02.972Z,1016.03
2023-04-26T00:55:03.721Z,1016.06
2023-04-26T01:00:03.496Z,1016.03
2023-04-26T01:05:03.168Z,1016.06
2023-04-26T01:10:03.218Z,1016.11
2023-04-26T01:15:03.538Z,1016.13
2023-04-26T01:20:03.119Z,1016.19
2023-04-26T01:25:03.362Z,1016.11
2023-04-26T01:30:03.054Z,1016.21
2023-04-26T01:35:03.112Z,1016.25
2023-04-26T01:40:03.944Z,1016.23
2023-04-26T01:45:03.480Z,1016.28
2023-04-26T01:50:03.054Z,1016.27
2023-04-26T01:55:03.334Z,1016.31
2023-04-26T02:00:03.640Z,1016.32
2023-04-26T02:05:04.123Z,1016.34
2023-04-26T02:10:03.685Z,1016.3
2023-04-26T02:15:03.301Z,1016.3
2023-04-26T02:20:03.043Z,1016.29
2023-04-26T02:25:03.048Z,1016.27
2023-04-26T02:30:03.116Z,1016.31
2023-04-26T02:35:02.815Z,1016.24
2023-04-26T02:40:03.544Z,1016.25
2023-04-26T02:45:03.486Z,1016.36
2023-04-26T02:50:03.276Z,1016.24
2023-04-26T02:55:02.863Z,1016.25
2023-04-26T03:00:02.975Z,1016.24
2023-04-26T03:05:03.722Z,1016.19
2023-04-26T03:10:03.640Z,1016.24
2023-04-26T03:15:03.375Z,1016.25
2023-04-26T03:20:03.678Z,1016.26
2023-04-26T03:25:02.880Z,1016.37
2023-04-26T03:30:03.639Z,1016.3
2023-04-26T03:35:03.543Z,1016.32
2023-04-26T03:40:03.300Z,1016.39
2023-04-26T03:45:03.041Z,1016.41
2023-04-26T03:50:02.633Z,1016.4
2023-04-26T03:55:03.875Z,1016.42
2023-04-26T04:00:03.739Z,1016.52
2023-04-26T04:05:03.471Z,1016.49
2023-04-26T04:10:03.036Z,1016.45
2023-04-26T04:15:03.743Z,1016.53
2023-04-26T04:20:03.611Z,1016.58
2023-04-26T04:25:03.447Z,1016.59
2023-04-26T04:30:02.926Z,1016.6
2023-04-26T04:35:02.859Z,1016.67
2023-04-26T04:40:03.623Z,1016.71
2023-04-26T04:45:03.429Z,1016.77
2023-04-26T04:50:03.187Z,1016.83
2023-04-26T04:55:03.365Z,1016.84
2023-04-26T05:00:03.723Z,1016.86
2023-04-26T05:05:04.148Z,1016.94
2023-04-26T05:10:03.381Z,1017.05
2023-04-26T05:15:03.143Z,1016.94
2023-04-26T05:20:03.511Z,1016.98
2023-04-26T05:25:03.193Z,1016.93
2023-04-26T05:30:02.881Z,1017
2023-04-26T05:35:03.753Z,1016.95
2023-04-26T05:40:03.453Z,1017.07
2023-04-26T05:45:03.280Z,1017.15
2023-04-26T05:50:03.033Z,1017.16
2023-04-26T05:55:03.742Z,1017.2
2023-04-26T06:00:03.604Z,1017.25
2023-04-26T06:05:04.344Z,1017.27
2023-04-26T06:10:03.100Z,1017.21
2023-04-26T06:15:04.592Z,1017.28
2023-04-26T06:20:03.151Z,1017.28
2023-04-26T06:25:02.916Z,1017.24
2023-04-26T06:30:03.723Z,1017.3
2023-04-26T06:35:03.537Z,1017.35
2023-04-26T06:40:03.205Z,1017.27
2023-04-26T06:45:03.034Z,1017.33
2023-04-26T06:50:03.802Z,1017.39
2023-04-26T06:55:04.401Z,1017.35
2023-04-26T07:00:04.544Z,1017.34
2023-04-26T07:05:04.172Z,1017.51
2023-04-26T07:10:02.985Z,1017.45
2023-04-26T07:15:03.114Z,1017.47
2023-04-26T07:20:03.601Z,1017.46
2023-04-26T07:25:03.324Z,1017.48
2023-04-26T07:30:03.375Z,1017.44
2023-04-26T07:35:03.037Z,1017.37
2023-04-26T07:40:02.891Z,1017.47
2023-04-26T07:45:03.559Z,1017.5
2023-04-26T07:50:03.341Z,1017.51
2023-04-26T07:55:03.925Z,1017.45
2023-04-26T08:00:03.007Z,1017.48
2023-04-26T08:05:04.683Z,1017.5
2023-04-26T08:10:03.480Z,1017.49
2023-04-26T08:15:03.323Z,1017.53
2023-04-26T08:20:03.119Z,1017.52
2023-04-26T08:25:02.900Z,1017.51
2023-04-26T08:30:03.579Z,1017.51
2023-04-26T08:35:03.417Z,1017.54
2023-04-26T08:40:03.296Z,1017.43
2023-04-26T08:45:03.082Z,1017.64
2023-04-26T08:50:02.843Z,1017.49
2023-04-26T08:55:03.546Z,1017.49
2023-04-26T09:00:03.385Z,1017.44
2023-04-26T09:05:04.259Z,1017.52
2023-04-26T09:10:02.735Z,1017.56
2023-04-26T09:15:03.664Z,1017.5
2023-04-26T09:20:08.460Z,1017.58
2023-04-26T09:25:03.276Z,1017.72
2023-04-26T09:30:02.976Z,1017.77
2023-04-26T09:35:03.741Z,1017.62
2023-04-26T09:40:03.501Z,1017.6
2023-04-26T09:45:03.575Z,1017.63
2023-04-26T09:50:03.020Z,1017.63
2023-04-26T09:55:02.852Z,1017.7
2023-04-26T10:00:02.817Z,1017.64
2023-04-26T10:05:04.035Z,1017.62
2023-04-26T10:10:03.479Z,1017.6
2023-04-26T10:15:03.522Z,1017.67
2023-04-26T10:20:03.489Z,1017.7
2023-04-26T10:25:03.188Z,1017.63
2023-04-26T10:30:03.722Z,1017.71
2023-04-26T10:35:03.379Z,1017.92
2023-04-26T10:40:03.235Z,1017.71
2023-04-26T10:45:02.975Z,1017.62
2023-04-26T10:50:06.879Z,1017.63
2023-04-26T10:55:03.719Z,1017.51
2023-04-26T11:00:03.501Z,1017.45
2023-04-26T11:05:03.495Z,1017.49
2023-04-26T11:10:02.825Z,1017.51
2023-04-26T11:15:03.956Z,1017.61
2023-04-26T11:20:03.772Z,1017.68
2023-04-26T11:25:03.794Z,1017.63
2023-04-26T11:30:03.484Z,1017.54
2023-04-26T11:35:03.171Z,1017.48
2023-04-26T11:40:03.082Z,1017.49
2023-04-26T11:45:02.957Z,1017.54
2023-04-26T11:50:03.525Z,1017.47
2023-04-26T11:55:04.208Z,1017.59
2023-04-26T12:00:03.283Z,1017.73
2023-04-26T12:05:04.207Z,1017.66
2023-04-26T12:10:02.869Z,1017.69
2023-04-26T12:15:02.809Z,1017.68
2023-04-26T12:20:03.666Z,1017.67
2023-04-26T12:25:03.243Z,1017.63
2023-04-26T12:30:03.344Z,1017.65
2023-04-26T12:35:03.149Z,1017.61
2023-04-26T12:40:03.020Z,1017.76
2023-04-26T12:45:03.602Z,1017.75
2023-04-26T12:50:03.527Z,1017.69
2023-04-26T12:55:03.382Z,1017.73
2023-04-26T13:00:03.215Z,1017.69
2023-04-26T13:05:03.492Z,1017.65
2023-04-26T13:10:02.902Z,1017.68
2023-04-26T13:15:03.766Z,1017.75
2023-04-26T13:20:03.486Z,1017.63
2023-04-26T13:25:03.190Z,1017.76
2023-04-26T13:30:03.054Z,1017.67
2023-04-26T13:35:03.905Z,1017.66
2023-04-26T13:40:03.646Z,1017.77
2023-04-26T13:45:03.579Z,1017.72
2023-04-26T13:50:03.294Z,1017.81
2023-04-26T13:55:03.320Z,1017.85
2023-04-26T14:00:03.692Z,1017.93
2023-04-26T14:05:04.603Z,1017.85
2023-04-26T14:10:03.367Z,1017.84
2023-04-26T14:15:03.502Z,1017.88
2023-04-26T14:20:03.082Z,1017.87
2023-04-26T14:25:02.832Z,1017.92
2023-04-26T14:30:03.719Z,1017.94
2023-04-26T14:35:03.450Z,1017.92
2023-04-26T14:40:03.308Z,1017.96
2023-04-26T14:45:03.123Z,1018
2023-04-26T14:50:02.864Z,1017.99
2023-04-26T14:55:03.843Z,1017.9
2023-04-26T15:00:03.485Z,1018
2023-04-26T15:05:03.471Z,1017.96
2023-04-26T15:10:02.980Z,1018.04
2023-04-26T15:15:03.743Z,1017.97
2023-04-26T15:20:03.865Z,1017.98
2023-04-26T15:25:03.631Z,1017.97
2023-04-26T15:30:03.639Z,1018.03
2023-04-26T15:35:03.214Z,1017.93
2023-04-26T15:40:03.257Z,1018.06
2023-04-26T15:45:03.007Z,1017.93
2023-04-26T15:50:03.783Z,1018.06
2023-04-26T15:55:04.037Z,1018.08
2023-04-26T16:00:03.533Z,1018.09
2023-04-26T16:05:04.355Z,1018.06
2023-04-26T16:10:03.334Z,1017.97
2023-04-26T16:15:03.612Z,1017.99
2023-04-26T16:20:03.433Z,1017.93
2023-04-26T16:25:02.958Z,1017.94
2023-04-26T16:30:03.062Z,1017.97
2023-04-26T16:35:03.704Z,1017.92
2023-04-26T16:40:03.239Z,1017.97
2023-04-26T16:45:03.060Z,1017.96
2023-04-26T16:50:03.037Z,1017.99
2023-04-26T16:55:03.776Z,1018
2023-04-26T17:00:03.561Z,1018.1
2023-04-26T17:05:04.440Z,1017.99
2023-04-26T17:10:03.184Z,1017.96
2023-04-26T17:15:05.534Z,1018.05
2023-04-26T17:20:03.750Z,1018.09
2023-04-26T17:25:03.485Z,1018.02
2023-04-26T17:30:03.278Z,1018.12
2023-04-26T17:35:02.970Z,1018.08
2023-04-26T17:40:03.017Z,1018.11
2023-04-26T17:45:03.045Z,1018.23
2023-04-26T17:50:02.866Z,1018.16
2023-04-26T17:55:03.057Z,1018.27
2023-04-26T18:00:03.758Z,1018.23
2023-04-26T18:05:03.930Z,1018.3
2023-04-26T18:10:03.188Z,1018.33
2023-04-26T18:15:03.039Z,1018.36
2023-04-26T18:20:03.027Z,1018.38
2023-04-26T18:25:02.804Z,1018.35
2023-04-26T18:30:02.928Z,1018.42
2023-04-26T18:35:03.795Z,1018.5
2023-04-26T18:40:03.535Z,1018.52
2023-04-26T18:45:03.338Z,1018.62
2023-04-26T18:50:03.322Z,1018.57
2023-04-26T18:55:03.300Z,1018.68
2023-04-26T19:00:03.693Z,1018.63
2023-04-26T19:05:04.620Z,1018.63
2023-04-26T19:10:03.319Z,1018.63
2023-04-26T19:15:03.079Z,1018.76
2023-04-26T19:20:03.675Z,1018.81
2023-04-26T19:25:03.548Z,1018.82
2023-04-26T19:30:03.352Z,1018.89
2023-04-26T19:35:03.147Z,1018.96
2023-04-26T19:40:02.896Z,1018.85
2023-04-26T19:45:03.647Z,1018.97
2023-04-26T19:50:03.319Z,1018.95
2023-04-26T19:55:03.679Z,1019.01
2023-04-26T20:00:03.225Z,1018.97
2023-04-26T20:05:03.045Z,1019.01
2023-04-26T20:10:02.856Z,1019.02
2023-04-26T20:15:03.803Z,1019.03
2023-04-26T20:20:03.614Z,1019.03
2023-04-26T20:25:03.259Z,1019.09
2023-04-26T20:30:03.499Z,1019.01
2023-04-26T20:35:02.686Z,1019.02
2023-04-26T20:40:03.067Z,1019.09
2023-04-26T20:45:03.456Z,1019.09
2023-04-26T20:50:03.224Z,1019.12
2023-04-26T20:55:03.535Z,1019.01
2023-04-26T21:00:02.941Z,1019.13
2023-04-26T21:05:03.552Z,1019.12
2023-04-26T21:10:03.248Z,1019.12
2023-04-26T21:15:03.212Z,1019.07
2023-04-26T21:20:03.134Z,1019.13
2023-04-26T21:25:02.949Z,1019.12
2023-04-26T21:30:03.877Z,1019.12
2023-04-26T21:35:03.680Z,1019.18
2023-04-26T21:40:03.609Z,1019.16
2023-04-26T21:45:03.806Z,1019.23
2023-04-26T21:50:03.601Z,1019.29
2023-04-26T21:55:03.654Z,1019.41
2023-04-26T22:00:03.236Z,1019.37
2023-04-26T22:05:03.061Z,1019.33
2023-04-26T22:10:03.793Z,1019.42
2023-04-26T22:15:03.720Z,1019.37
2023-04-26T22:20:03.454Z,1019.42
2023-04-26T22:25:03.324Z,1019.47
2023-04-26T22:30:26.711Z,1019.51
2023-04-26T22:35:03.572Z,1019.6
2023-04-26T22:40:03.515Z,1019.66
2023-04-26T22:45:03.681Z,1019.73
2023-04-26T22:50:03.375Z,1019.78
2023-04-26T22:55:03.020Z,1019.79
2023-04-26T23:00:03.927Z,1019.72
2023-04-26T23:05:03.724Z,1019.69
2023-04-26T23:10:03.633Z,1019.69
2023-04-26T23:15:03.168Z,1019.7
2023-04-26T23:20:02.791Z,1019.82
2023-04-26T23:25:03.455Z,1019.73
2023-04-26T23:30:03.491Z,1019.74
2023-04-26T23:35:03.416Z,1019.74
2023-04-26T23:40:03.149Z,1019.72
2023-04-26T23:45:03.805Z,1019.73
2023-04-26T23:50:03.472Z,1019.67
2023-04-26T23:55:04.044Z,1019.71
